Time;durP1;ratioP1;P1;durP2;ratioP2;P2;SDS_P1;SDS_P2;PMS_P1;PMS_P2;Temp;Humidity;BMP_temperature;BMP_pressure;BME280_temperature;BME280_humidity;BME280_pressure;Samples;Min_cycle;Max_cycle;Signal;HPM_P1;HPM_P2
2021/10/09 00:02:01;;;;;;;;;26.75;23.00;;;;;;;;5055739;28;11130;-78
2021/10/09 00:04:29;;;;;;;;;24.50;22.75;;;;;;;;5062499;28;11619;-73
2021/10/09 00:06:56;;;;;;;;;29.00;28.25;;;;;;;;5062206;28;10966;-74
2021/10/09 00:09:24;;;;;;;;;29.25;25.75;;;;;;;;5063365;28;11161;-74
2021/10/09 00:11:52;;;;;;;;;26.25;24.75;;;;;;;;5058016;28;11182;-74
2021/10/09 00:14:19;;;;;;;;;29.50;28.00;;;;;;;;5061808;28;11368;-73
2021/10/09 00:16:47;;;;;;;;;26.50;24.50;;;;;;;;5062114;28;11128;-73
2021/10/09 00:19:15;;;;;;;;;26.25;24.25;;;;;;;;5060807;28;11844;-74
2021/10/09 00:21:44;;;;;;;;;19.00;17.75;;;;;;;;5062205;28;11006;-75
2021/10/09 00:24:12;;;;;;;;;30.25;26.75;;;;;;;;5059173;28;11124;-73
2021/10/09 00:26:41;;;;;;;;;28.75;24.25;;;;;;;;5062974;28;11179;-74
2021/10/09 00:29:09;;;;;;;;;26.00;22.75;;;;;;;;5061390;28;11150;-74
2021/10/09 00:31:36;;;;;;;;;30.25;28.00;;;;;;;;5062527;28;11232;-76
2021/10/09 00:34:04;;;;;;;;;21.50;17.25;;;;;;;;5054625;28;11934;-73
2021/10/09 00:36:31;;;;;;;;;28.50;26.75;;;;;;;;5060779;28;11267;-75
2021/10/09 00:38:59;;;;;;;;;26.50;25.50;;;;;;;;5061593;28;11116;-72
2021/10/09 00:41:26;;;;;;;;;26.75;26.75;;;;;;;;5062721;28;11100;-73
2021/10/09 00:43:55;;;;;;;;;30.50;30.50;;;;;;;;5060020;28;11165;-75
2021/10/09 00:46:22;;;;;;;;;28.75;23.00;;;;;;;;5061429;28;11271;-73
2021/10/09 00:48:50;;;;;;;;;24.25;22.25;;;;;;;;5063132;28;11183;-76
2021/10/09 00:51:17;;;;;;;;;35.50;27.75;;;;;;;;5043128;28;11149;-74
2021/10/09 00:53:47;;;;;;;;;28.00;26.00;;;;;;;;5061903;28;11066;-73
2021/10/09 00:56:18;;;;;;;;;32.25;30.25;;;;;;;;5058786;28;11244;-73
2021/10/09 00:58:46;;;;;;;;;30.75;30.75;;;;;;;;5062409;28;11239;-73
2021/10/09 01:01:15;;;;;;;;;29.75;27.75;;;;;;;;5060999;28;11071;-78
2021/10/09 01:03:42;;;;;;;;;37.25;32.75;;;;;;;;5060215;28;11288;-74
2021/10/09 01:06:10;;;;;;;;;33.00;32.25;;;;;;;;5063106;28;11237;-74
2021/10/09 01:08:37;;;;;;;;;31.75;30.50;;;;;;;;5044175;28;11207;-73
2021/10/09 01:11:07;;;;;;;;;34.00;32.00;;;;;;;;5066164;28;11895;-74
2021/10/09 01:13:34;;;;;;;;;33.75;30.00;;;;;;;;5064197;28;10974;-74
2021/10/09 01:16:01;;;;;;;;;34.50;32.50;;;;;;;;5063746;28;11126;-73
2021/10/09 01:18:30;;;;;;;;;31.75;28.25;;;;;;;;5066642;28;11170;-73
2021/10/09 01:21:01;;;;;;;;;33.00;31.50;;;;;;;;5060861;28;11265;-73
2021/10/09 01:23:29;;;;;;;;;29.50;27.50;;;;;;;;5066412;28;11154;-73
2021/10/09 01:25:57;;;;;;;;;36.25;27.50;;;;;;;;5061637;28;11207;-74
2021/10/09 01:28:25;;;;;;;;;32.75;28.50;;;;;;;;5066265;28;11222;-76
2021/10/09 01:30:54;;;;;;;;;24.75;24.75;;;;;;;;5064586;28;11139;-74
2021/10/09 01:33:21;;;;;;;;;27.50;24.50;;;;;;;;5055070;28;11232;-74
2021/10/09 01:35:50;;;;;;;;;27.75;25.50;;;;;;;;5061831;28;11229;-74
2021/10/09 01:38:20;;;;;;;;;28.25;27.25;;;;;;;;5024559;28;11171;-76
2021/10/09 01:40:47;;;;;;;;;35.50;33.00;;;;;;;;5026200;28;11138;-73
2021/10/09 01:43:16;;;;;;;;;30.50;27.00;;;;;;;;5024474;28;11209;-77
2021/10/09 01:45:44;;;;;;;;;44.25;34.50;;;;;;;;5025293;28;11902;-74
2021/10/09 01:48:12;;;;;;;;;31.00;29.25;;;;;;;;5025887;28;11270;-73
2021/10/09 01:50:39;;;;;;;;;30.00;27.75;;;;;;;;5024071;28;11284;-73
2021/10/09 01:53:07;;;;;;;;;21.50;20.75;;;;;;;;5024462;28;11923;-73
2021/10/09 01:55:37;;;;;;;;;38.00;35.00;;;;;;;;5023954;28;11131;-74
2021/10/09 01:58:04;;;;;;;;;34.50;32.00;;;;;;;;5023746;28;12067;-73
2021/10/09 02:00:32;;;;;;;;;35.75;32.50;;;;;;;;5023337;28;11276;-75
2021/10/09 02:03:02;;;;;;;;;30.00;28.50;;;;;;;;5024689;28;11559;-74
2021/10/09 02:05:32;;;;;;;;;34.75;28.50;;;;;;;;5023754;28;11336;-76
2021/10/09 02:08:00;;;;;;;;;29.50;29.50;;;;;;;;5020755;28;12117;-73
2021/10/09 02:10:27;;;;;;;;;34.50;30.50;;;;;;;;5025393;28;11319;-73
2021/10/09 02:12:58;;;;;;;;;36.00;30.00;;;;;;;;5023487;28;11690;-74
2021/10/09 02:15:27;;;;;;;;;30.25;29.75;;;;;;;;5025437;28;11552;-75
2021/10/09 02:26:08;;;;;;;;;19.75;19.75;;;;;;;;5022946;28;11522;-73
2021/10/09 02:28:37;;;;;;;;;28.50;25.25;;;;;;;;5024361;28;11570;-74
2021/10/09 02:31:04;;;;;;;;;37.25;33.75;;;;;;;;5020069;28;11661;-76
2021/10/09 02:33:31;;;;;;;;;34.50;27.25;;;;;;;;5025215;28;11617;-75
2021/10/09 02:35:59;;;;;;;;;44.75;33.50;;;;;;;;5024681;28;11326;-76
2021/10/09 02:38:26;;;;;;;;;34.25;29.75;;;;;;;;5064804;28;11563;-74
2021/10/09 02:40:53;;;;;;;;;25.75;24.50;;;;;;;;5045200;28;11497;-73
2021/10/09 02:43:21;;;;;;;;;35.50;33.25;;;;;;;;5047961;28;11515;-75
2021/10/09 02:45:49;;;;;;;;;34.75;33.25;;;;;;;;5063814;28;11318;-74
2021/10/09 02:48:17;;;;;;;;;37.75;33.50;;;;;;;;5063556;28;11484;-76
2021/10/09 02:50:44;;;;;;;;;33.00;29.00;;;;;;;;5057498;28;11646;-75
2021/10/09 02:53:12;;;;;;;;;35.00;32.75;;;;;;;;5063002;28;11589;-75
2021/10/09 02:55:39;;;;;;;;;35.25;34.50;;;;;;;;5061558;28;11583;-74
2021/10/09 02:58:07;;;;;;;;;35.25;32.75;;;;;;;;5062870;28;11544;-75
2021/10/09 03:00:34;;;;;;;;;30.50;30.50;;;;;;;;5063192;28;11440;-76
2021/10/09 03:03:03;;;;;;;;;37.50;36.75;;;;;;;;5063780;28;11493;-75
2021/10/09 03:05:30;;;;;;;;;29.50;27.75;;;;;;;;5060842;28;11608;-76
2021/10/09 03:07:57;;;;;;;;;36.50;32.25;;;;;;;;5062347;28;11608;-75
2021/10/09 03:10:26;;;;;;;;;36.75;35.50;;;;;;;;5062939;28;11528;-74
2021/10/09 03:12:53;;;;;;;;;36.50;35.00;;;;;;;;5064121;28;11586;-75
2021/10/09 03:15:21;;;;;;;;;43.50;32.50;;;;;;;;5062902;28;11603;-75
2021/10/09 03:17:49;;;;;;;;;36.25;32.50;;;;;;;;5056422;28;11518;-75
2021/10/09 03:20:17;;;;;;;;;35.75;34.75;;;;;;;;5064253;28;11656;-74
2021/10/09 03:22:47;;;;;;;;;41.00;36.25;;;;;;;;5058182;28;11604;-75
2021/10/09 03:25:15;;;;;;;;;37.75;35.25;;;;;;;;5060938;28;11496;-75
2021/10/09 03:27:43;;;;;;;;;26.50;25.25;;;;;;;;5062018;28;11666;-74
2021/10/09 03:30:11;;;;;;;;;24.25;24.00;;;;;;;;5063187;28;11497;-74
2021/10/09 03:32:39;;;;;;;;;32.50;30.75;;;;;;;;5062377;28;11327;-75
2021/10/09 03:35:07;;;;;;;;;31.50;28.75;;;;;;;;5062238;28;12283;-72
2021/10/09 03:37:36;;;;;;;;;33.25;31.00;;;;;;;;5062371;28;11500;-74
2021/10/09 03:40:07;;;;;;;;;27.50;27.50;;;;;;;;5060855;28;12133;-74
2021/10/09 03:42:37;;;;;;;;;38.00;33.75;;;;;;;;5063380;28;11514;-74
2021/10/09 03:45:09;;;;;;;;;34.00;31.50;;;;;;;;5060092;28;11548;-73
2021/10/09 03:47:58;;;;;;;;;32.25;25.75;;;;;;;;5063725;28;11476;-75
2021/10/09 03:52:22;;;;;;;;;33.50;32.75;;;;;;;;5062771;28;11475;-76
2021/10/09 03:53:21;;;;;;;;;33.25;30.25;;;;;;;;5061244;28;11504;-75
2021/10/09 03:55:49;;;;;;;;;37.00;33.00;;;;;;;;5062577;28;12758;-74
2021/10/09 03:58:16;;;;;;;;;49.00;39.50;;;;;;;;5061690;28;11657;-74
2021/10/09 04:00:43;;;;;;;;;38.00;34.50;;;;;;;;5062657;28;11467;-75
2021/10/09 04:03:10;;;;;;;;;34.00;33.50;;;;;;;;5061151;28;11482;-74
2021/10/09 04:05:38;;;;;;;;;33.00;29.75;;;;;;;;5061535;28;11466;-76
2021/10/09 04:08:07;;;;;;;;;29.25;28.75;;;;;;;;5063239;28;11580;-76
2021/10/09 04:10:37;;;;;;;;;42.00;38.25;;;;;;;;5044032;28;11528;-74
2021/10/09 04:13:04;;;;;;;;;32.00;31.00;;;;;;;;5062377;28;11617;-78
2021/10/09 04:15:32;;;;;;;;;27.50;27.50;;;;;;;;5061163;28;11506;-73
2021/10/09 04:17:59;;;;;;;;;35.50;31.00;;;;;;;;5062779;28;12318;-74
2021/10/09 04:20:27;;;;;;;;;35.50;33.75;;;;;;;;5061520;28;11576;-75
2021/10/09 04:22:54;;;;;;;;;33.75;33.75;;;;;;;;5058691;28;11514;-77
2021/10/09 04:25:22;;;;;;;;;37.25;31.25;;;;;;;;5060876;28;11499;-75
2021/10/09 04:27:51;;;;;;;;;31.25;28.00;;;;;;;;5061489;28;11660;-74
2021/10/09 04:30:18;;;;;;;;;30.75;29.75;;;;;;;;5062401;28;11654;-77
2021/10/09 04:32:45;;;;;;;;;26.00;25.75;;;;;;;;5061229;28;11606;-73
2021/10/09 04:35:13;;;;;;;;;30.50;30.50;;;;;;;;5062858;28;12241;-74
2021/10/09 04:37:41;;;;;;;;;38.25;35.00;;;;;;;;5062802;28;11631;-71
2021/10/09 04:40:09;;;;;;;;;31.25;31.25;;;;;;;;5062700;28;11488;-74
2021/10/09 04:42:36;;;;;;;;;32.25;30.25;;;;;;;;5067221;28;11494;-74
2021/10/09 04:45:07;;;;;;;;;43.25;30.50;;;;;;;;5069438;28;11657;-74
2021/10/09 04:47:35;;;;;;;;;42.00;37.50;;;;;;;;5066386;28;12392;-73
2021/10/09 04:50:03;;;;;;;;;36.25;32.50;;;;;;;;5048165;28;11538;-75
2021/10/09 04:52:30;;;;;;;;;28.50;28.50;;;;;;;;5065409;28;12318;-76
2021/10/09 04:54:57;;;;;;;;;28.25;25.75;;;;;;;;5048802;28;11499;-75
2021/10/09 04:57:24;;;;;;;;;35.25;29.00;;;;;;;;5066596;28;11498;-79
2021/10/09 04:59:53;;;;;;;;;34.75;30.50;;;;;;;;5067554;28;11543;-80
2021/10/09 05:02:22;;;;;;;;;34.00;29.50;;;;;;;;5063316;28;11449;-80
2021/10/09 05:04:49;;;;;;;;;30.75;28.75;;;;;;;;5065630;28;11542;-73
2021/10/09 05:07:17;;;;;;;;;30.75;30.75;;;;;;;;5064097;28;11508;-75
2021/10/09 05:09:44;;;;;;;;;29.00;29.00;;;;;;;;5064913;28;11528;-75
2021/10/09 05:12:12;;;;;;;;;31.50;29.50;;;;;;;;5045537;28;11522;-77
2021/10/09 05:14:39;;;;;;;;;31.00;26.00;;;;;;;;5065882;28;11567;-77
2021/10/09 05:17:06;;;;;;;;;28.25;25.00;;;;;;;;5062174;28;11527;-73
2021/10/09 05:19:35;;;;;;;;;30.00;25.75;;;;;;;;5062924;28;11499;-77
2021/10/09 05:22:02;;;;;;;;;28.00;27.50;;;;;;;;5061400;28;11648;-77
2021/10/09 05:24:29;;;;;;;;;29.00;29.00;;;;;;;;5064191;28;12087;-75
2021/10/09 05:26:58;;;;;;;;;35.75;30.25;;;;;;;;5060386;28;11482;-76
2021/10/09 05:29:25;;;;;;;;;29.00;27.00;;;;;;;;5058482;28;11512;-78
2021/10/09 05:32:02;;;;;;;;;31.25;26.75;;;;;;;;5057256;28;11566;-78
2021/10/09 05:34:29;;;;;;;;;29.50;27.25;;;;;;;;5040739;28;11640;-75
2021/10/09 05:36:58;;;;;;;;;28.50;26.50;;;;;;;;5060549;28;11502;-75
2021/10/09 05:39:26;;;;;;;;;31.50;30.25;;;;;;;;5062214;28;11594;-76
2021/10/09 05:41:54;;;;;;;;;27.50;25.00;;;;;;;;5044825;28;12364;-76
2021/10/09 05:44:21;;;;;;;;;25.00;19.75;;;;;;;;5063967;28;11512;-74
2021/10/09 05:46:48;;;;;;;;;24.25;23.00;;;;;;;;5063629;28;12272;-80
2021/10/09 05:49:16;;;;;;;;;27.50;27.50;;;;;;;;5066299;28;11504;-77
2021/10/09 05:51:53;;;;;;;;;23.50;23.50;;;;;;;;5047387;28;11548;-80
2021/10/09 05:54:26;;;;;;;;;35.50;31.00;;;;;;;;5063925;28;11483;-80
2021/10/09 05:57:01;;;;;;;;;26.25;25.00;;;;;;;;5067298;28;11525;-77
2021/10/09 07:00:24;;;;;;;;;38.00;32.25;;;;;;;;5061530;28;12236;-80
2021/10/09 07:02:52;;;;;;;;;33.75;33.75;;;;;;;;5042563;28;11548;-77
2021/10/09 07:05:21;;;;;;;;;35.75;30.00;;;;;;;;5061452;28;11485;-77
2021/10/09 07:07:50;;;;;;;;;40.75;37.50;;;;;;;;5061751;28;11493;-77
2021/10/09 07:10:18;;;;;;;;;33.75;29.50;;;;;;;;5045207;28;11490;-76
2021/10/09 07:12:46;;;;;;;;;38.00;34.50;;;;;;;;5062092;28;11519;-77
2021/10/09 07:15:15;;;;;;;;;40.00;35.25;;;;;;;;5044250;28;11568;-80
2021/10/09 07:17:45;;;;;;;;;42.00;37.25;;;;;;;;5061910;28;11555;-81
2021/10/09 07:20:13;;;;;;;;;34.25;32.25;;;;;;;;5062974;28;11535;-73
2021/10/09 07:22:42;;;;;;;;;38.00;37.75;;;;;;;;5060943;28;11566;-73
2021/10/09 07:25:10;;;;;;;;;37.25;36.00;;;;;;;;5062938;28;13028;-73
2021/10/09 07:27:37;;;;;;;;;38.50;36.50;;;;;;;;5062371;28;11632;-71
2021/10/09 07:30:05;;;;;;;;;39.50;35.50;;;;;;;;5061834;28;11506;-72
2021/10/09 07:32:32;;;;;;;;;40.50;38.00;;;;;;;;5062679;28;11509;-72
2021/10/09 07:35:01;;;;;;;;;45.25;38.50;;;;;;;;5061028;28;11329;-71
2021/10/09 07:37:28;;;;;;;;;42.75;37.50;;;;;;;;5043873;28;11421;-72
2021/10/09 07:39:56;;;;;;;;;33.75;33.50;;;;;;;;5060196;28;11975;-72
2021/10/09 07:42:23;;;;;;;;;35.75;32.75;;;;;;;;5061352;28;11146;-72
2021/10/09 07:44:51;;;;;;;;;39.25;35.00;;;;;;;;5061678;28;11066;-72
2021/10/09 07:47:18;;;;;;;;;35.25;35.25;;;;;;;;5062270;28;11012;-72
2021/10/09 07:49:46;;;;;;;;;34.25;32.00;;;;;;;;5043251;28;10930;-73
2021/10/09 07:52:15;;;;;;;;;36.50;35.50;;;;;;;;5059793;28;11014;-73
2021/10/09 07:54:43;;;;;;;;;33.75;30.50;;;;;;;;5057933;28;10845;-74
2021/10/09 07:57:10;;;;;;;;;39.75;34.25;;;;;;;;5060641;28;10918;-73
2021/10/09 07:59:38;;;;;;;;;38.00;34.50;;;;;;;;5061285;28;11503;-73
2021/10/09 08:02:05;;;;;;;;;38.25;36.50;;;;;;;;5060013;28;10777;-73
2021/10/09 08:04:33;;;;;;;;;35.00;32.75;;;;;;;;5059034;28;10869;-73
2021/10/09 08:07:00;;;;;;;;;35.50;33.00;;;;;;;;5060246;28;10783;-72
2021/10/09 08:09:32;;;;;;;;;36.50;35.75;;;;;;;;5058414;28;10869;-74
2021/10/09 08:12:00;;;;;;;;;33.25;31.50;;;;;;;;5061158;28;11012;-72
2021/10/09 08:14:27;;;;;;;;;33.75;33.75;;;;;;;;5042808;28;10689;-72
2021/10/09 08:16:54;;;;;;;;;43.00;38.50;;;;;;;;5061856;28;10706;-71
2021/10/09 08:19:23;;;;;;;;;44.00;39.00;;;;;;;;5060814;28;10669;-72
2021/10/09 08:21:51;;;;;;;;;42.00;36.00;;;;;;;;5060958;28;10680;-71
2021/10/09 08:24:30;;;;;;;;;42.25;38.25;;;;;;;;5060769;28;10489;-71
2021/10/09 08:35:59;;;;;;;;;40.75;36.50;;;;;;;;5060948;28;10054;-74
2021/10/09 08:41:11;;;;;;;;;39.25;35.50;;;;;;;;5061285;28;10094;-74
2021/10/09 08:43:43;;;;;;;;;32.75;31.50;;;;;;;;5059733;28;9968;-74
2021/10/09 08:46:10;;;;;;;;;35.25;31.25;;;;;;;;5060972;28;10104;-75
2021/10/09 08:48:42;;;;;;;;;38.50;37.00;;;;;;;;5060451;28;9865;-74
2021/10/09 08:51:09;;;;;;;;;36.00;32.75;;;;;;;;5062172;28;10678;-75
2021/10/09 08:53:37;;;;;;;;;43.25;37.00;;;;;;;;5057410;28;9872;-74
2021/10/09 08:56:05;;;;;;;;;41.00;35.75;;;;;;;;5061418;28;9778;-74
2021/10/09 08:58:35;;;;;;;;;39.25;34.25;;;;;;;;5060304;28;9619;-74
2021/10/09 09:01:10;;;;;;;;;41.50;34.25;;;;;;;;5064273;28;9600;-74
2021/10/09 09:04:08;;;;;;;;;34.67;33.33;;;;;;;;5042918;28;9507;-79
2021/10/09 09:09:31;;;;;;;;;34.67;32.67;;;;;;;;5055434;28;9194;-74
2021/10/09 09:32:10;;;;;;;;;30.25;24.25;;;;;;;;5056460;28;8803;-72
2021/10/09 09:40:07;;;;;;;;;24.25;24.00;;;;;;;;5063587;28;9650;-73
2021/10/09 09:42:43;;;;;;;;;34.00;30.00;;;;;;;;5067278;28;8971;-74
2021/10/09 09:45:11;;;;;;;;;26.50;26.50;;;;;;;;5066943;28;8892;-73
2021/10/09 09:47:41;;;;;;;;;34.25;32.50;;;;;;;;5070296;28;8888;-73
2021/10/09 09:50:12;;;;;;;;;32.50;30.25;;;;;;;;5074340;28;8868;-74
2021/10/09 09:52:42;;;;;;;;;25.00;24.75;;;;;;;;5064083;28;8865;-74
2021/10/09 09:55:11;;;;;;;;;28.50;26.50;;;;;;;;5063577;28;8874;-72
2021/10/09 09:57:41;;;;;;;;;28.50;28.50;;;;;;;;5063372;28;8857;-73
2021/10/09 10:00:10;;;;;;;;;30.75;29.50;;;;;;;;5063974;28;8878;-73
2021/10/09 10:02:40;;;;;;;;;26.50;24.50;;;;;;;;5062905;28;8900;-74
2021/10/09 10:05:12;;;;;;;;;32.50;27.50;;;;;;;;5064788;28;10010;-73
2021/10/09 10:07:40;;;;;;;;;30.00;27.00;;;;;;;;5061896;28;8866;-73
2021/10/09 10:10:09;;;;;;;;;27.25;25.00;;;;;;;;5064863;28;8914;-73
2021/10/09 10:12:37;;;;;;;;;25.75;24.00;;;;;;;;5062426;28;8880;-73
2021/10/09 10:15:06;;;;;;;;;31.25;25.00;;;;;;;;5062883;28;8892;-73
2021/10/09 10:17:41;;;;;;;;;19.00;19.00;;;;;;;;5046143;28;8883;-73
2021/10/09 10:20:12;;;;;;;;;25.75;23.00;;;;;;;;5059891;28;8892;-72
2021/10/09 10:22:59;;;;;;;;;28.75;25.50;;;;;;;;5062888;28;8900;-74
2021/10/09 10:25:46;;;;;;;;;28.25;28.00;;;;;;;;5062893;28;9971;-70
2021/10/09 10:28:17;;;;;;;;;24.00;22.00;;;;;;;;5059228;28;8876;-72
2021/10/09 10:30:46;;;;;;;;;21.75;20.75;;;;;;;;5059087;28;8778;-73
2021/10/09 10:33:57;;;;;;;;;25.75;24.75;;;;;;;;5061341;28;8864;-73
2021/10/09 10:36:43;;;;;;;;;25.00;22.25;;;;;;;;5049052;28;8856;-74
2021/10/09 10:39:11;;;;;;;;;24.75;23.00;;;;;;;;5063626;28;8925;-76
2021/10/09 10:41:48;;;;;;;;;22.00;22.00;;;;;;;;5061623;28;8882;-75
2021/10/09 10:44:45;;;;;;;;;23.75;23.25;;;;;;;;5056582;28;8987;-74
2021/10/09 10:47:38;;;;;;;;;22.75;22.00;;;;;;;;5050505;28;8882;-75
2021/10/09 10:50:18;;;;;;;;;22.00;22.00;;;;;;;;5063183;28;8872;-75
2021/10/09 10:53:06;;;;;;;;;25.00;19.00;;;;;;;;5061700;28;8880;-75
2021/10/09 10:56:04;;;;;;;;;22.50;22.50;;;;;;;;5056479;28;8903;-73
2021/10/09 10:58:31;;;;;;;;;17.75;17.75;;;;;;;;5059720;28;9701;-74
2021/10/09 11:01:18;;;;;;;;;20.00;19.50;;;;;;;;5064457;28;8816;-75
2021/10/09 11:03:50;;;;;;;;;16.25;16.25;;;;;;;;5053673;28;8884;-75
2021/10/09 11:06:19;;;;;;;;;18.50;16.50;;;;;;;;5063026;28;8891;-72
2021/10/09 11:08:49;;;;;;;;;17.00;16.50;;;;;;;;5061540;28;9011;-72
2021/10/09 11:11:17;;;;;;;;;20.25;16.25;;;;;;;;5063543;28;8926;-75
2021/10/09 11:13:49;;;;;;;;;17.40;17.40;;;;;;;;5061100;28;8855;-76
2021/10/09 11:16:16;;;;;;;;;16.40;16.40;;;;;;;;5055495;28;8891;-77
2021/10/09 11:18:51;;;;;;;;;17.80;17.80;;;;;;;;5058528;28;8852;-75
2021/10/09 11:21:19;;;;;;;;;19.00;19.00;;;;;;;;5061670;28;8994;-73
2021/10/09 11:23:53;;;;;;;;;15.60;15.60;;;;;;;;5061068;28;8996;-75
2021/10/09 11:26:21;;;;;;;;;15.80;13.80;;;;;;;;5061727;28;8878;-74
2021/10/09 11:28:48;;;;;;;;;16.40;16.40;;;;;;;;5063032;28;8969;-75
2021/10/09 11:31:23;;;;;;;;;18.40;16.20;;;;;;;;5043893;28;8785;-73
2021/10/09 11:33:56;;;;;;;;;19.20;17.40;;;;;;;;5061554;28;8888;-75
2021/10/09 11:36:24;;;;;;;;;16.60;16.60;;;;;;;;5063031;28;8888;-73
2021/10/09 11:39:04;;;;;;;;;16.00;16.00;;;;;;;;5061912;28;8913;-73
2021/10/09 11:41:32;;;;;;;;;16.20;15.00;;;;;;;;5061928;28;8885;-73
2021/10/09 11:44:03;;;;;;;;;14.60;14.00;;;;;;;;5061098;28;8855;-73
2021/10/09 11:46:46;;;;;;;;;16.80;16.80;;;;;;;;5061731;28;8892;-74
2021/10/09 11:55:00;;;;;;;;;14.60;14.60;;;;;;;;5062817;28;8852;-73
2021/10/09 11:57:30;;;;;;;;;17.20;13.40;;;;;;;;5051530;28;8852;-73
2021/10/09 11:59:58;;;;;;;;;10.40;10.40;;;;;;;;5061420;28;8987;-73
2021/10/09 12:02:35;;;;;;;;;8.20;8.20;;;;;;;;5061795;28;8828;-73
2021/10/09 12:05:03;;;;;;;;;13.40;13.40;;;;;;;;5061252;28;8872;-76
2021/10/09 12:07:30;;;;;;;;;13.20;12.40;;;;;;;;5062862;28;8884;-74
2021/10/09 12:10:00;;;;;;;;;14.20;14.20;;;;;;;;5061956;28;8852;-71
2021/10/09 12:12:31;;;;;;;;;13.80;12.60;;;;;;;;5061540;28;8986;-73
2021/10/09 12:14:59;;;;;;;;;13.80;13.80;;;;;;;;5062078;28;8864;-72
2021/10/09 12:17:36;;;;;;;;;13.60;13.20;;;;;;;;5061451;28;8880;-73
2021/10/09 12:20:06;;;;;;;;;11.00;10.20;;;;;;;;5045249;28;8883;-72
2021/10/09 12:22:42;;;;;;;;;17.20;15.60;;;;;;;;5060685;28;8895;-72
2021/10/09 12:25:22;;;;;;;;;12.80;12.80;;;;;;;;5044375;28;8891;-72
2021/10/09 12:27:56;;;;;;;;;14.80;14.80;;;;;;;;5061831;28;9685;-73
2021/10/09 12:30:34;;;;;;;;;13.60;13.60;;;;;;;;5060715;28;8801;-72
2021/10/09 12:33:01;;;;;;;;;13.80;13.80;;;;;;;;5062074;28;9007;-73
2021/10/09 12:35:32;;;;;;;;;13.20;12.20;;;;;;;;5060952;28;8919;-74
2021/10/09 12:38:03;;;;;;;;;14.40;14.40;;;;;;;;5062655;28;8914;-76
2021/10/09 12:40:38;;;;;;;;;15.80;14.00;;;;;;;;5061362;28;8859;-72
2021/10/09 12:43:07;;;;;;;;;15.60;14.20;;;;;;;;5060869;28;9293;-73
2021/10/09 12:45:34;;;;;;;;;13.60;13.60;;;;;;;;5061691;28;8899;-73
2021/10/09 12:48:02;;;;;;;;;10.00;10.00;;;;;;;;5060993;28;8840;-74
2021/10/09 12:50:31;;;;;;;;;13.80;13.80;;;;;;;;5063443;28;9790;-74
2021/10/09 12:52:59;;;;;;;;;15.00;14.20;;;;;;;;5055962;28;10155;-75
2021/10/09 12:55:27;;;;;;;;;11.60;11.60;;;;;;;;5060140;28;8923;-75
2021/10/09 12:57:59;;;;;;;;;18.40;15.40;;;;;;;;5063942;28;8908;-73
2021/10/09 13:00:28;;;;;;;;;13.80;13.80;;;;;;;;5063236;28;8804;-73
2021/10/09 13:02:57;;;;;;;;;15.60;14.00;;;;;;;;5063536;28;8868;-73
2021/10/09 13:05:26;;;;;;;;;13.60;13.60;;;;;;;;5053784;28;9007;-73
2021/10/09 13:07:54;;;;;;;;;15.40;14.80;;;;;;;;5064937;28;8875;-74
2021/10/09 13:10:22;;;;;;;;;13.00;12.60;;;;;;;;5063850;28;8898;-72
2021/10/09 13:12:50;;;;;;;;;14.00;14.00;;;;;;;;5070180;28;8860;-74
2021/10/09 13:15:20;;;;;;;;;16.20;16.20;;;;;;;;5064342;28;8868;-73
2021/10/09 13:17:49;;;;;;;;;13.60;13.60;;;;;;;;5065023;28;8872;-75
2021/10/09 13:20:17;;;;;;;;;16.00;14.40;;;;;;;;5064923;28;8874;-73
2021/10/09 13:22:45;;;;;;;;;17.60;16.40;;;;;;;;5063808;28;8872;-74
2021/10/09 13:25:12;;;;;;;;;16.20;14.40;;;;;;;;5064628;28;8880;-74
2021/10/09 13:27:40;;;;;;;;;14.60;14.60;;;;;;;;5063986;28;8884;-74
2021/10/09 13:30:08;;;;;;;;;14.60;14.60;;;;;;;;5064844;28;8910;-74
2021/10/09 13:32:37;;;;;;;;;14.00;13.00;;;;;;;;5044865;28;8832;-74
2021/10/09 13:35:05;;;;;;;;;13.20;12.80;;;;;;;;5063745;28;8888;-73
2021/10/09 13:37:36;;;;;;;;;15.00;15.00;;;;;;;;5063185;28;8971;-72
2021/10/09 13:40:05;;;;;;;;;12.20;11.60;;;;;;;;5061790;28;8909;-73
2021/10/09 13:42:32;;;;;;;;;12.00;12.00;;;;;;;;5063664;28;8878;-72
2021/10/09 13:44:59;;;;;;;;;13.00;13.00;;;;;;;;5062483;28;8865;-73
2021/10/09 13:47:27;;;;;;;;;13.60;12.20;;;;;;;;5065163;28;8882;-73
2021/10/09 13:49:56;;;;;;;;;14.00;14.00;;;;;;;;5045654;28;8860;-74
2021/10/09 13:52:23;;;;;;;;;14.80;13.20;;;;;;;;5064479;28;8876;-73
2021/10/09 13:54:51;;;;;;;;;13.20;12.80;;;;;;;;5062938;28;8955;-73
2021/10/09 13:57:18;;;;;;;;;11.00;11.00;;;;;;;;5058932;28;8860;-73
2021/10/09 13:59:45;;;;;;;;;13.40;11.80;;;;;;;;5061152;28;8900;-73
2021/10/09 14:02:12;;;;;;;;;10.80;10.80;;;;;;;;5061132;28;8813;-72
2021/10/09 14:04:40;;;;;;;;;13.40;13.40;;;;;;;;5060531;28;8891;-73
2021/10/09 14:07:09;;;;;;;;;11.20;10.40;;;;;;;;5044791;28;8855;-73
2021/10/09 14:09:37;;;;;;;;;11.60;11.60;;;;;;;;5063463;28;8916;-72
2021/10/09 14:12:06;;;;;;;;;10.60;9.60;;;;;;;;5063443;28;8848;-74
2021/10/09 14:14:33;;;;;;;;;14.60;13.40;;;;;;;;5060385;28;8888;-72
2021/10/09 14:17:00;;;;;;;;;12.60;12.60;;;;;;;;5055227;28;8872;-73
2021/10/09 14:19:28;;;;;;;;;11.20;10.60;;;;;;;;5061049;28;8876;-74
2021/10/09 14:21:55;;;;;;;;;10.20;7.60;;;;;;;;5062902;28;8868;-73
2021/10/09 14:24:24;;;;;;;;;12.00;12.00;;;;;;;;5061322;28;8903;-74
2021/10/09 14:26:52;;;;;;;;;11.00;9.80;;;;;;;;5061393;28;8883;-74
2021/10/09 14:29:19;;;;;;;;;12.20;10.20;;;;;;;;5062527;28;8967;-71
2021/10/09 14:31:46;;;;;;;;;16.40;16.40;;;;;;;;5061486;28;8848;-71
2021/10/09 14:34:13;;;;;;;;;11.20;11.20;;;;;;;;5063364;28;8918;-72
2021/10/09 14:36:41;;;;;;;;;13.00;12.60;;;;;;;;5060709;28;8872;-72
2021/10/09 14:39:09;;;;;;;;;10.80;10.80;;;;;;;;5063875;28;8872;-72
2021/10/09 14:41:37;;;;;;;;;12.40;12.40;;;;;;;;5062347;28;8852;-72
2021/10/09 14:44:05;;;;;;;;;13.00;13.00;;;;;;;;5063443;28;8908;-72
2021/10/09 14:49:29;;;;;;;;;15.00;13.80;;;;;;;;5056331;28;8965;-71
2021/10/09 14:51:59;;;;;;;;;10.60;10.60;;;;;;;;5041481;28;8899;-71
2021/10/09 15:16:42;;;;;;;;;15.00;13.20;;;;;;;;5053600;28;8868;-72
2021/10/09 15:19:09;;;;;;;;;15.60;15.60;;;;;;;;5063052;28;8868;-73
2021/10/09 15:21:37;;;;;;;;;10.80;10.80;;;;;;;;5064712;28;8975;-71
2021/10/09 15:24:04;;;;;;;;;14.40;13.00;;;;;;;;5063039;28;8868;-72
2021/10/09 15:26:32;;;;;;;;;15.00;14.00;;;;;;;;5063931;28;8852;-71
2021/10/09 15:29:01;;;;;;;;;13.60;12.80;;;;;;;;5062746;28;8876;-71
2021/10/09 15:31:28;;;;;;;;;14.80;13.00;;;;;;;;5063956;28;9408;-71
2021/10/09 15:33:55;;;;;;;;;11.00;11.00;;;;;;;;5062498;28;8856;-72
2021/10/09 15:36:23;;;;;;;;;15.80;14.00;;;;;;;;5062588;28;8922;-72
2021/10/09 15:38:50;;;;;;;;;13.80;12.80;;;;;;;;5064154;28;8868;-71
2021/10/09 15:41:17;;;;;;;;;15.20;15.20;;;;;;;;5062015;28;8898;-72
2021/10/09 15:43:45;;;;;;;;;13.20;13.20;;;;;;;;5063463;28;8891;-71
2021/10/09 15:46:14;;;;;;;;;12.00;12.00;;;;;;;;5063732;28;9004;-70
2021/10/09 15:48:41;;;;;;;;;12.00;12.00;;;;;;;;5063335;28;9025;-72
2021/10/09 15:51:09;;;;;;;;;13.00;13.00;;;;;;;;5045494;28;8878;-73
2021/10/09 15:53:36;;;;;;;;;12.60;12.60;;;;;;;;5061153;28;8864;-73
2021/10/09 15:56:03;;;;;;;;;13.60;13.20;;;;;;;;5061500;28;8852;-73
2021/10/09 15:58:32;;;;;;;;;13.00;11.40;;;;;;;;5061359;28;9629;-73
2021/10/09 16:00:59;;;;;;;;;11.40;11.40;;;;;;;;5060673;28;8815;-72
2021/10/09 16:03:28;;;;;;;;;12.40;12.40;;;;;;;;5056428;28;8926;-73
2021/10/09 16:05:55;;;;;;;;;14.00;14.00;;;;;;;;5058170;28;8860;-73
2021/10/09 16:08:23;;;;;;;;;12.20;12.20;;;;;;;;5059502;28;8868;-75
2021/10/09 16:10:50;;;;;;;;;11.60;8.80;;;;;;;;5055705;28;8876;-74
2021/10/09 16:13:22;;;;;;;;;13.20;13.20;;;;;;;;5062074;28;9598;-76
2021/10/09 16:15:49;;;;;;;;;15.25;14.00;;;;;;;;5045116;28;8892;-76
2021/10/09 16:18:16;;;;;;;;;14.75;13.75;;;;;;;;5063328;28;8840;-76
2021/10/09 16:20:45;;;;;;;;;10.75;10.75;;;;;;;;5062289;28;8864;-75
2021/10/09 16:23:13;;;;;;;;;12.00;12.00;;;;;;;;5064267;28;8852;-75
2021/10/09 16:25:40;;;;;;;;;13.50;13.50;;;;;;;;5062005;28;8884;-74
2021/10/09 16:28:08;;;;;;;;;14.75;12.75;;;;;;;;5064003;28;8880;-74
2021/10/09 16:30:35;;;;;;;;;15.50;15.50;;;;;;;;5061556;28;8785;-75
2021/10/09 16:33:02;;;;;;;;;16.75;16.75;;;;;;;;5068545;28;8844;-74
2021/10/09 16:35:29;;;;;;;;;19.75;17.25;;;;;;;;5066245;28;8876;-73
2021/10/09 16:37:59;;;;;;;;;14.25;14.25;;;;;;;;5066894;28;8884;-74
2021/10/09 16:40:26;;;;;;;;;15.25;13.00;;;;;;;;5068095;28;8863;-74
2021/10/09 16:42:54;;;;;;;;;11.80;11.80;;;;;;;;5066161;28;8852;-74
2021/10/09 16:45:21;;;;;;;;;13.25;12.00;;;;;;;;5066281;28;8871;-74
2021/10/09 16:47:48;;;;;;;;;12.50;11.00;;;;;;;;5065688;28;8860;-74
2021/10/09 16:50:16;;;;;;;;;11.25;11.25;;;;;;;;5066796;28;8891;-74
2021/10/09 16:52:43;;;;;;;;;18.00;16.00;;;;;;;;5066468;28;8840;-75
2021/10/09 16:55:12;;;;;;;;;16.25;13.00;;;;;;;;5051621;28;8872;-73
2021/10/09 16:57:40;;;;;;;;;13.25;9.75;;;;;;;;5066949;28;8872;-72